sensor_id;sensor_type;location;lat;lon;timestamp;P1;durP1;ratioP1;P2;durP2;ratioP2
9924;SDS011;5001;51.674;7.868;2023-11-19T00:00:34;8.60;;;8.20;;
9924;SDS011;5001;51.674;7.868;2023-11-19T00:03:02;8.40;;;8.00;;
9924;SDS011;5001;51.674;7.868;2023-11-19T00:05:30;8.60;;;8.20;;
9924;SDS011;5001;51.674;7.868;2023-11-19T00:07:57;8.70;;;8.30;;
9924;SDS011;5001;51.674;7.868;2023-11-19T00:10:24;8.50;;;8.10;;
9924;SDS011;5001;51.674;7.868;2023-11-19T00:12:51;8.10;;;7.70;;
9924;SDS011;5001;51.674;7.868;2023-11-19T00:15:18;8.10;;;7.70;;
9924;SDS011;5001;51.674;7.868;2023-11-19T00:17:46;7.73;;;7.43;;
9924;SDS011;5001;51.674;7.868;2023-11-19T00:20:17;7.50;;;7.20;;
9924;SDS011;5001;51.674;7.868;2023-11-19T00:22:45;7.70;;;7.40;;
9924;SDS011;5001;51.674;7.868;2023-11-19T00:25:18;7.70;;;7.40;;
9924;SDS011;5001;51.674;7.868;2023-11-19T00:27:46;7.80;;;7.50;;
9924;SDS011;5001;51.674;7.868;2023-11-19T00:30:14;7.80;;;7.50;;
9924;SDS011;5001;51.674;7.868;2023-11-19T00:32:41;7.80;;;7.50;;
9924;SDS011;5001;51.674;7.868;2023-11-19T00:35:09;7.70;;;7.40;;
9924;SDS011;5001;51.674;7.868;2023-11-19T00:37:41;7.87;;;7.57;;
9924;SDS011;5001;51.674;7.868;2023-11-19T00:40:12;8.03;;;7.63;;
9924;SDS011;5001;51.674;7.868;2023-11-19T00:42:40;7.73;;;7.43;;
9924;SDS011;5001;51.674;7.868;2023-11-19T00:45:07;8.20;;;7.80;;
9924;SDS011;5001;51.674;7.868;2023-11-19T00:47:36;8.03;;;7.63;;
9924;SDS011;5001;51.674;7.868;2023-11-19T00:50:03;8.20;;;7.80;;
9924;SDS011;5001;51.674;7.868;2023-11-19T00:52:30;8.23;;;7.83;;
9924;SDS011;5001;51.674;7.868;2023-11-19T00:54:58;8.40;;;8.00;;
9924;SDS011;5001;51.674;7.868;2023-11-19T00:57:26;8.70;;;8.30;;
9924;SDS011;5001;51.674;7.868;2023-11-19T00:59:53;8.87;;;8.47;;
9924;SDS011;5001;51.674;7.868;2023-11-19T01:02:20;8.90;;;8.50;;
9924;SDS011;5001;51.674;7.868;2023-11-19T01:04:47;8.97;;;8.57;;
9924;SDS011;5001;51.674;7.868;2023-11-19T01:07:15;8.70;;;8.30;;
9924;SDS011;5001;51.674;7.868;2023-11-19T01:09:42;8.70;;;8.30;;
9924;SDS011;5001;51.674;7.868;2023-11-19T01:12:09;8.57;;;8.17;;
9924;SDS011;5001;51.674;7.868;2023-11-19T01:14:37;8.70;;;8.30;;
9924;SDS011;5001;51.674;7.868;2023-11-19T01:17:05;8.70;;;8.30;;
9924;SDS011;5001;51.674;7.868;2023-11-19T01:19:34;8.80;;;8.40;;
9924;SDS011;5001;51.674;7.868;2023-11-19T01:22:01;8.97;;;8.57;;
9924;SDS011;5001;51.674;7.868;2023-11-19T01:24:28;8.80;;;8.40;;
9924;SDS011;5001;51.674;7.868;2023-11-19T01:26:57;8.80;;;8.40;;
9924;SDS011;5001;51.674;7.868;2023-11-19T01:29:26;8.80;;;8.40;;
9924;SDS011;5001;51.674;7.868;2023-11-19T01:31:54;8.70;;;8.30;;
9924;SDS011;5001;51.674;7.868;2023-11-19T01:34:21;8.70;;;8.30;;
9924;SDS011;5001;51.674;7.868;2023-11-19T01:36:49;8.60;;;8.20;;
9924;SDS011;5001;51.674;7.868;2023-11-19T01:39:17;8.60;;;8.20;;
9924;SDS011;5001;51.674;7.868;2023-11-19T01:41:44;8.60;;;8.20;;
9924;SDS011;5001;51.674;7.868;2023-11-19T01:44:11;8.50;;;8.10;;
9924;SDS011;5001;51.674;7.868;2023-11-19T01:46:42;8.20;;;7.80;;
9924;SDS011;5001;51.674;7.868;2023-11-19T01:49:11;8.40;;;8.00;;
9924;SDS011;5001;51.674;7.868;2023-11-19T01:51:39;8.60;;;8.20;;
9924;SDS011;5001;51.674;7.868;2023-11-19T01:54:06;8.50;;;8.10;;
9924;SDS011;5001;51.674;7.868;2023-11-19T01:56:35;8.50;;;8.10;;
9924;SDS011;5001;51.674;7.868;2023-11-19T01:59:03;8.30;;;7.90;;
9924;SDS011;5001;51.674;7.868;2023-11-19T02:01:30;8.50;;;8.10;;
9924;SDS011;5001;51.674;7.868;2023-11-19T02:04:01;8.23;;;7.83;;
9924;SDS011;5001;51.674;7.868;2023-11-19T02:06:29;8.20;;;7.80;;
9924;SDS011;5001;51.674;7.868;2023-11-19T02:08:58;7.97;;;7.60;;
9924;SDS011;5001;51.674;7.868;2023-11-19T02:11:25;8.00;;;7.60;;
9924;SDS011;5001;51.674;7.868;2023-11-19T02:13:55;8.80;;;8.40;;
9924;SDS011;5001;51.674;7.868;2023-11-19T02:16:23;8.93;;;8.53;;
9924;SDS011;5001;51.674;7.868;2023-11-19T02:18:50;8.37;;;7.97;;
9924;SDS011;5001;51.674;7.868;2023-11-19T02:21:18;7.80;;;7.50;;
9924;SDS011;5001;51.674;7.868;2023-11-19T02:23:45;7.70;;;7.40;;
9924;SDS011;5001;51.674;7.868;2023-11-19T02:26:14;7.90;;;7.60;;
9924;SDS011;5001;51.674;7.868;2023-11-19T02:29:01;8.03;;;7.63;;
9924;SDS011;5001;51.674;7.868;2023-11-19T02:31:33;7.77;;;7.47;;
9924;SDS011;5001;51.674;7.868;2023-11-19T02:34:03;8.03;;;7.63;;
9924;SDS011;5001;51.674;7.868;2023-11-19T02:36:30;7.70;;;7.40;;
9924;SDS011;5001;51.674;7.868;2023-11-19T02:38:58;8.00;;;7.60;;
9924;SDS011;5001;51.674;7.868;2023-11-19T02:41:28;8.40;;;8.00;;
9924;SDS011;5001;51.674;7.868;2023-11-19T02:43:55;8.30;;;7.90;;
9924;SDS011;5001;51.674;7.868;2023-11-19T02:46:22;7.70;;;7.40;;
9924;SDS011;5001;51.674;7.868;2023-11-19T02:48:49;8.20;;;7.80;;
9924;SDS011;5001;51.674;7.868;2023-11-19T02:51:17;8.43;;;8.03;;
9924;SDS011;5001;51.674;7.868;2023-11-19T02:53:45;8.20;;;7.80;;
9924;SDS011;5001;51.674;7.868;2023-11-19T02:56:15;8.30;;;7.90;;
9924;SDS011;5001;51.674;7.868;2023-11-19T02:58:46;7.60;;;7.30;;
9924;SDS011;5001;51.674;7.868;2023-11-19T03:05:15;7.70;;;7.40;;
9924;SDS011;5001;51.674;7.868;2023-11-19T03:07:43;8.03;;;7.63;;
9924;SDS011;5001;51.674;7.868;2023-11-19T03:10:10;7.50;;;7.20;;
9924;SDS011;5001;51.674;7.868;2023-11-19T03:12:41;7.90;;;7.60;;
9924;SDS011;5001;51.674;7.868;2023-11-19T03:15:09;8.00;;;7.60;;
9924;SDS011;5001;51.674;7.868;2023-11-19T03:17:38;7.90;;;7.60;;
9924;SDS011;5001;51.674;7.868;2023-11-19T03:20:06;7.80;;;7.50;;
9924;SDS011;5001;51.674;7.868;2023-11-19T03:22:41;7.90;;;7.60;;
9924;SDS011;5001;51.674;7.868;2023-11-19T03:25:08;7.67;;;7.37;;
9924;SDS011;5001;51.674;7.868;2023-11-19T03:27:36;7.50;;;7.20;;
9924;SDS011;5001;51.674;7.868;2023-11-19T03:30:08;7.50;;;7.20;;
9924;SDS011;5001;51.674;7.868;2023-11-19T03:32:38;7.70;;;7.40;;
9924;SDS011;5001;51.674;7.868;2023-11-19T03:35:05;7.40;;;7.10;;
9924;SDS011;5001;51.674;7.868;2023-11-19T03:37:37;7.20;;;6.90;;
9924;SDS011;5001;51.674;7.868;2023-11-19T03:40:04;7.40;;;7.10;;
9924;SDS011;5001;51.674;7.868;2023-11-19T03:42:32;7.17;;;6.87;;
9924;SDS011;5001;51.674;7.868;2023-11-19T03:44:59;7.20;;;6.90;;
9924;SDS011;5001;51.674;7.868;2023-11-19T03:47:26;7.00;;;6.70;;
9924;SDS011;5001;51.674;7.868;2023-11-19T03:49:53;6.90;;;6.60;;
9924;SDS011;5001;51.674;7.868;2023-11-19T03:52:20;6.80;;;6.50;;
9924;SDS011;5001;51.674;7.868;2023-11-19T03:54:48;6.70;;;6.40;;
9924;SDS011;5001;51.674;7.868;2023-11-19T03:57:15;6.50;;;6.20;;
9924;SDS011;5001;51.674;7.868;2023-11-19T03:59:42;6.90;;;6.60;;
9924;SDS011;5001;51.674;7.868;2023-11-19T04:02:10;6.80;;;6.50;;
9924;SDS011;5001;51.674;7.868;2023-11-19T04:04:37;6.80;;;6.50;;
9924;SDS011;5001;51.674;7.868;2023-11-19T04:07:07;6.90;;;6.60;;
9924;SDS011;5001;51.674;7.868;2023-11-19T04:09:35;6.80;;;6.50;;
9924;SDS011;5001;51.674;7.868;2023-11-19T04:12:04;6.93;;;6.63;;
9924;SDS011;5001;51.674;7.868;2023-11-19T04:14:32;6.63;;;6.33;;
9924;SDS011;5001;51.674;7.868;2023-11-19T04:16:59;6.23;;;5.93;;
9924;SDS011;5001;51.674;7.868;2023-11-19T04:19:26;6.30;;;6.00;;
9924;SDS011;5001;51.674;7.868;2023-11-19T04:21:53;6.10;;;5.80;;
9924;SDS011;5001;51.674;7.868;2023-11-19T04:24:20;6.50;;;6.20;;
9924;SDS011;5001;51.674;7.868;2023-11-19T04:26:47;6.20;;;5.90;;
9924;SDS011;5001;51.674;7.868;2023-11-19T04:29:15;5.67;;;5.47;;
9924;SDS011;5001;51.674;7.868;2023-11-19T04:31:46;5.50;;;5.30;;
9924;SDS011;5001;51.674;7.868;2023-11-19T04:34:13;5.40;;;5.20;;
9924;SDS011;5001;51.674;7.868;2023-11-19T04:36:40;5.30;;;5.10;;
9924;SDS011;5001;51.674;7.868;2023-11-19T04:39:07;5.30;;;5.10;;
9924;SDS011;5001;51.674;7.868;2023-11-19T04:41:35;5.30;;;5.10;;
9924;SDS011;5001;51.674;7.868;2023-11-19T04:44:03;5.40;;;5.20;;
9924;SDS011;5001;51.674;7.868;2023-11-19T04:46:30;5.50;;;5.30;;
9924;SDS011;5001;51.674;7.868;2023-11-19T04:48:57;6.10;;;5.80;;
9924;SDS011;5001;51.674;7.868;2023-11-19T04:51:24;5.67;;;5.47;;
9924;SDS011;5001;51.674;7.868;2023-11-19T04:53:51;6.10;;;5.80;;
9924;SDS011;5001;51.674;7.868;2023-11-19T04:56:18;6.20;;;5.90;;
9924;SDS011;5001;51.674;7.868;2023-11-19T04:58:46;6.13;;;5.83;;
9924;SDS011;5001;51.674;7.868;2023-11-19T05:01:13;6.70;;;6.40;;
9924;SDS011;5001;51.674;7.868;2023-11-19T05:03:43;6.90;;;6.60;;
9924;SDS011;5001;51.674;7.868;2023-11-19T05:06:12;7.60;;;7.30;;
9924;SDS011;5001;51.674;7.868;2023-11-19T05:08:39;7.50;;;7.20;;
9924;SDS011;5001;51.674;7.868;2023-11-19T05:11:06;7.43;;;7.13;;
9924;SDS011;5001;51.674;7.868;2023-11-19T05:13:34;7.60;;;7.30;;
9924;SDS011;5001;51.674;7.868;2023-11-19T05:16:01;7.60;;;7.30;;
9924;SDS011;5001;51.674;7.868;2023-11-19T05:18:28;7.60;;;7.30;;
9924;SDS011;5001;51.674;7.868;2023-11-19T05:20:55;8.20;;;7.80;;
9924;SDS011;5001;51.674;7.868;2023-11-19T05:23:22;8.07;;;7.67;;
9924;SDS011;5001;51.674;7.868;2023-11-19T05:25:49;8.10;;;7.70;;
9924;SDS011;5001;51.674;7.868;2023-11-19T05:28:18;8.20;;;7.80;;
9924;SDS011;5001;51.674;7.868;2023-11-19T05:30:46;7.50;;;7.20;;
9924;SDS011;5001;51.674;7.868;2023-11-19T05:33:13;8.68;;;8.27;;
9924;SDS011;5001;51.674;7.868;2023-11-19T05:35:40;7.70;;;7.40;;
9924;SDS011;5001;51.674;7.868;2023-11-19T05:38:07;8.30;;;7.90;;
9924;SDS011;5001;51.674;7.868;2023-11-19T05:40:35;8.30;;;7.90;;
9924;SDS011;5001;51.674;7.868;2023-11-19T05:43:05;8.90;;;8.50;;
9924;SDS011;5001;51.674;7.868;2023-11-19T05:45:33;8.67;;;8.27;;
9924;SDS011;5001;51.674;7.868;2023-11-19T05:48:00;8.90;;;8.50;;
9924;SDS011;5001;51.674;7.868;2023-11-19T05:50:27;8.50;;;8.10;;
9924;SDS011;5001;51.674;7.868;2023-11-19T05:52:55;8.40;;;8.00;;
9924;SDS011;5001;51.674;7.868;2023-11-19T05:55:22;8.10;;;7.70;;
9924;SDS011;5001;51.674;7.868;2023-11-19T05:57:51;8.00;;;7.60;;
9924;SDS011;5001;51.674;7.868;2023-11-19T06:00:20;8.20;;;7.80;;
9924;SDS011;5001;51.674;7.868;2023-11-19T06:02:47;7.70;;;7.40;;
9924;SDS011;5001;51.674;7.868;2023-11-19T06:05:14;8.20;;;7.80;;
9924;SDS011;5001;51.674;7.868;2023-11-19T06:07:41;8.30;;;7.90;;
9924;SDS011;5001;51.674;7.868;2023-11-19T06:10:09;7.77;;;7.47;;
9924;SDS011;5001;51.674;7.868;2023-11-19T06:12:37;7.90;;;7.60;;
9924;SDS011;5001;51.674;7.868;2023-11-19T06:15:06;8.30;;;7.90;;
9924;SDS011;5001;51.674;7.868;2023-11-19T06:17:34;8.60;;;8.20;;
9924;SDS011;5001;51.674;7.868;2023-11-19T06:20:03;8.40;;;8.00;;
9924;SDS011;5001;51.674;7.868;2023-11-19T06:22:31;8.50;;;8.10;;
9924;SDS011;5001;51.674;7.868;2023-11-19T06:24:58;8.50;;;8.10;;
9924;SDS011;5001;51.674;7.868;2023-11-19T06:27:26;8.50;;;8.10;;
9924;SDS011;5001;51.674;7.868;2023-11-19T06:29:53;8.57;;;8.17;;
9924;SDS011;5001;51.674;7.868;2023-11-19T06:32:20;8.80;;;8.40;;
9924;SDS011;5001;51.674;7.868;2023-11-19T06:34:48;9.00;;;8.60;;
9924;SDS011;5001;51.674;7.868;2023-11-19T06:37:16;9.00;;;8.60;;
9924;SDS011;5001;51.674;7.868;2023-11-19T06:39:45;9.50;;;9.10;;
9924;SDS011;5001;51.674;7.868;2023-11-19T06:42:12;9.30;;;8.90;;
9924;SDS011;5001;51.674;7.868;2023-11-19T06:44:39;9.80;;;9.30;;
9924;SDS011;5001;51.674;7.868;2023-11-19T06:47:06;9.30;;;8.90;;
9924;SDS011;5001;51.674;7.868;2023-11-19T06:49:33;9.30;;;8.90;;
9924;SDS011;5001;51.674;7.868;2023-11-19T06:52:00;9.43;;;9.03;;
9924;SDS011;5001;51.674;7.868;2023-11-19T06:54:27;9.27;;;8.87;;
9924;SDS011;5001;51.674;7.868;2023-11-19T06:56:54;9.20;;;8.80;;
9924;SDS011;5001;51.674;7.868;2023-11-19T06:59:21;9.23;;;8.83;;
9924;SDS011;5001;51.674;7.868;2023-11-19T07:01:50;9.30;;;8.90;;
9924;SDS011;5001;51.674;7.868;2023-11-19T07:04:16;16.97;;;14.20;;
9924;SDS011;5001;51.674;7.868;2023-11-19T07:06:43;9.37;;;8.97;;
9924;SDS011;5001;51.674;7.868;2023-11-19T07:09:12;9.43;;;9.03;;
9924;SDS011;5001;51.674;7.868;2023-11-19T07:11:40;9.40;;;9.00;;
9924;SDS011;5001;51.674;7.868;2023-11-19T07:14:08;9.63;;;9.23;;
9924;SDS011;5001;51.674;7.868;2023-11-19T07:16:35;9.90;;;9.40;;
9924;SDS011;5001;51.674;7.868;2023-11-19T07:19:05;9.93;;;9.43;;
9924;SDS011;5001;51.674;7.868;2023-11-19T07:21:33;9.60;;;9.20;;
9924;SDS011;5001;51.674;7.868;2023-11-19T07:24:00;10.00;;;9.50;;
9924;SDS011;5001;51.674;7.868;2023-11-19T07:26:28;10.40;;;9.90;;
9924;SDS011;5001;51.674;7.868;2023-11-19T07:28:56;10.33;;;9.83;;
9924;SDS011;5001;51.674;7.868;2023-11-19T07:31:23;10.30;;;9.80;;
9924;SDS011;5001;51.674;7.868;2023-11-19T07:33:50;10.27;;;9.77;;
9924;SDS011;5001;51.674;7.868;2023-11-19T07:36:17;10.27;;;9.77;;
9924;SDS011;5001;51.674;7.868;2023-11-19T07:38:45;10.40;;;9.90;;
9924;SDS011;5001;51.674;7.868;2023-11-19T07:41:13;10.00;;;9.50;;
9924;SDS011;5001;51.674;7.868;2023-11-19T07:43:44;10.00;;;9.50;;
9924;SDS011;5001;51.674;7.868;2023-11-19T07:46:13;10.10;;;9.60;;
9924;SDS011;5001;51.674;7.868;2023-11-19T07:48:40;9.87;;;9.37;;
9924;SDS011;5001;51.674;7.868;2023-11-19T07:51:10;10.00;;;9.50;;
9924;SDS011;5001;51.674;7.868;2023-11-19T07:53:39;9.50;;;9.10;;
9924;SDS011;5001;51.674;7.868;2023-11-19T07:56:07;9.60;;;9.20;;
9924;SDS011;5001;51.674;7.868;2023-11-19T07:58:35;9.57;;;9.17;;
9924;SDS011;5001;51.674;7.868;2023-11-19T08:01:03;9.60;;;9.20;;
9924;SDS011;5001;51.674;7.868;2023-11-19T08:03:30;9.70;;;9.30;;
9924;SDS011;5001;51.674;7.868;2023-11-19T08:05:57;10.10;;;9.60;;
9924;SDS011;5001;51.674;7.868;2023-11-19T08:08:25;9.60;;;9.20;;
9924;SDS011;5001;51.674;7.868;2023-11-19T08:10:53;10.60;;;10.10;;
9924;SDS011;5001;51.674;7.868;2023-11-19T08:13:23;10.30;;;9.80;;
9924;SDS011;5001;51.674;7.868;2023-11-19T08:15:51;10.47;;;9.97;;
9924;SDS011;5001;51.674;7.868;2023-11-19T08:18:18;10.77;;;10.27;;
9924;SDS011;5001;51.674;7.868;2023-11-19T08:20:46;11.20;;;10.70;;
9924;SDS011;5001;51.674;7.868;2023-11-19T08:23:16;11.18;;;10.68;;
9924;SDS011;5001;51.674;7.868;2023-11-19T08:25:43;11.93;;;11.32;;
9924;SDS011;5001;51.674;7.868;2023-11-19T08:28:10;11.52;;;10.93;;
9924;SDS011;5001;51.674;7.868;2023-11-19T08:30:37;11.30;;;10.80;;
9924;SDS011;5001;51.674;7.868;2023-11-19T08:33:05;11.40;;;10.90;;
9924;SDS011;5001;51.674;7.868;2023-11-19T08:35:33;11.32;;;10.82;;
9924;SDS011;5001;51.674;7.868;2023-11-19T08:38:01;11.63;;;11.03;;
9924;SDS011;5001;51.674;7.868;2023-11-19T08:40:31;11.73;;;11.13;;
9924;SDS011;5001;51.674;7.868;2023-11-19T08:43:00;11.20;;;10.70;;
9924;SDS011;5001;51.674;7.868;2023-11-19T08:45:29;11.32;;;10.82;;
9924;SDS011;5001;51.674;7.868;2023-11-19T08:48:00;11.00;;;10.50;;
9924;SDS011;5001;51.674;7.868;2023-11-19T08:50:27;11.50;;;11.00;;
9924;SDS011;5001;51.674;7.868;2023-11-19T08:52:54;11.50;;;11.00;;
9924;SDS011;5001;51.674;7.868;2023-11-19T08:55:21;11.13;;;10.63;;
9924;SDS011;5001;51.674;7.868;2023-11-19T08:57:48;10.80;;;10.30;;
9924;SDS011;5001;51.674;7.868;2023-11-19T09:00:15;10.70;;;10.20;;
9924;SDS011;5001;51.674;7.868;2023-11-19T09:02:42;10.87;;;10.37;;
9924;SDS011;5001;51.674;7.868;2023-11-19T09:05:10;11.00;;;10.50;;
9924;SDS011;5001;51.674;7.868;2023-11-19T09:07:37;10.90;;;10.40;;
9924;SDS011;5001;51.674;7.868;2023-11-19T09:10:05;10.60;;;10.10;;
9924;SDS011;5001;51.674;7.868;2023-11-19T09:12:35;10.90;;;10.40;;
9924;SDS011;5001;51.674;7.868;2023-11-19T09:15:03;10.70;;;10.20;;
9924;SDS011;5001;51.674;7.868;2023-11-19T09:17:30;11.10;;;10.60;;
9924;SDS011;5001;51.674;7.868;2023-11-19T09:19:57;11.10;;;10.60;;
9924;SDS011;5001;51.674;7.868;2023-11-19T09:22:24;10.95;;;10.45;;
9924;SDS011;5001;51.674;7.868;2023-11-19T09:24:51;11.00;;;10.50;;
9924;SDS011;5001;51.674;7.868;2023-11-19T09:27:21;11.00;;;10.50;;
9924;SDS011;5001;51.674;7.868;2023-11-19T09:29:48;11.20;;;10.70;;
9924;SDS011;5001;51.674;7.868;2023-11-19T09:32:19;11.20;;;10.70;;
9924;SDS011;5001;51.674;7.868;2023-11-19T09:34:47;11.40;;;10.90;;
9924;SDS011;5001;51.674;7.868;2023-11-19T09:37:15;11.15;;;10.65;;
9924;SDS011;5001;51.674;7.868;2023-11-19T09:39:45;11.80;;;11.20;;
9924;SDS011;5001;51.674;7.868;2023-11-19T09:42:13;12.57;;;11.98;;
9924;SDS011;5001;51.674;7.868;2023-11-19T09:44:40;12.50;;;11.90;;
9924;SDS011;5001;51.674;7.868;2023-11-19T09:47:10;12.40;;;11.80;;
9924;SDS011;5001;51.674;7.868;2023-11-19T09:49:39;12.75;;;12.15;;
9924;SDS011;5001;51.674;7.868;2023-11-19T09:52:06;12.32;;;11.73;;
9924;SDS011;5001;51.674;7.868;2023-11-19T09:54:34;12.50;;;11.90;;
9924;SDS011;5001;51.674;7.868;2023-11-19T09:57:02;12.20;;;11.60;;
9924;SDS011;5001;51.674;7.868;2023-11-19T09:59:31;12.07;;;11.48;;
9924;SDS011;5001;51.674;7.868;2023-11-19T10:01:59;12.00;;;11.40;;
9924;SDS011;5001;51.674;7.868;2023-11-19T10:04:29;11.88;;;11.27;;
9924;SDS011;5001;51.674;7.868;2023-11-19T10:06:57;12.40;;;11.80;;
9924;SDS011;5001;51.674;7.868;2023-11-19T10:09:27;12.30;;;11.70;;
9924;SDS011;5001;51.674;7.868;2023-11-19T10:11:56;12.60;;;12.00;;
9924;SDS011;5001;51.674;7.868;2023-11-19T10:14:24;12.73;;;12.13;;
9924;SDS011;5001;51.674;7.868;2023-11-19T10:16:52;12.60;;;12.00;;
9924;SDS011;5001;51.674;7.868;2023-11-19T10:19:24;12.43;;;11.82;;
9924;SDS011;5001;51.674;7.868;2023-11-19T10:21:51;12.80;;;12.20;;
9924;SDS011;5001;51.674;7.868;2023-11-19T10:24:30;12.50;;;11.90;;
9924;SDS011;5001;51.674;7.868;2023-11-19T10:27:02;12.30;;;11.70;;
9924;SDS011;5001;51.674;7.868;2023-11-19T10:29:37;12.20;;;11.60;;
9924;SDS011;5001;51.674;7.868;2023-11-19T10:32:05;12.13;;;11.52;;
9924;SDS011;5001;51.674;7.868;2023-11-19T10:34:52;12.07;;;11.48;;
9924;SDS011;5001;51.674;7.868;2023-11-19T10:37:31;12.18;;;11.57;;
9924;SDS011;5001;51.674;7.868;2023-11-19T10:39:59;12.18;;;11.57;;
9924;SDS011;5001;51.674;7.868;2023-11-19T10:42:27;12.18;;;11.57;;
9924;SDS011;5001;51.674;7.868;2023-11-19T10:44:54;12.40;;;11.80;;
9924;SDS011;5001;51.674;7.868;2023-11-19T10:47:21;11.90;;;11.30;;
9924;SDS011;5001;51.674;7.868;2023-11-19T10:49:52;12.40;;;11.80;;
9924;SDS011;5001;51.674;7.868;2023-11-19T10:52:20;12.35;;;11.75;;
9924;SDS011;5001;51.674;7.868;2023-11-19T10:54:50;12.60;;;12.00;;
9924;SDS011;5001;51.674;7.868;2023-11-19T10:57:21;12.50;;;11.90;;
9924;SDS011;5001;51.674;7.868;2023-11-19T10:59:52;12.20;;;11.60;;
9924;SDS011;5001;51.674;7.868;2023-11-19T11:02:30;12.13;;;11.52;;
9924;SDS011;5001;51.674;7.868;2023-11-19T11:05:05;11.80;;;11.20;;
9924;SDS011;5001;51.674;7.868;2023-11-19T11:07:35;12.00;;;11.40;;
9924;SDS011;5001;51.674;7.868;2023-11-19T11:10:07;11.90;;;11.30;;
9924;SDS011;5001;51.674;7.868;2023-11-19T11:12:36;11.90;;;11.30;;
9924;SDS011;5001;51.674;7.868;2023-11-19T11:15:08;11.40;;;10.90;;
9924;SDS011;5001;51.674;7.868;2023-11-19T11:17:40;11.55;;;11.00;;
9924;SDS011;5001;51.674;7.868;2023-11-19T11:20:10;10.93;;;10.43;;
9924;SDS011;5001;51.674;7.868;2023-11-19T11:22:45;11.00;;;10.50;;
9924;SDS011;5001;51.674;7.868;2023-11-19T11:31:15;10.83;;;10.33;;
9924;SDS011;5001;51.674;7.868;2023-11-19T11:36:38;11.18;;;10.68;;
9924;SDS011;5001;51.674;7.868;2023-11-19T11:39:20;10.80;;;10.30;;
9924;SDS011;5001;51.674;7.868;2023-11-19T11:42:14;10.90;;;10.40;;
9924;SDS011;5001;51.674;7.868;2023-11-19T11:50:14;11.30;;;10.80;;
9924;SDS011;5001;51.674;7.868;2023-11-19T11:55:27;11.27;;;10.77;;
9924;SDS011;5001;51.674;7.868;2023-11-19T11:57:55;11.32;;;10.82;;
9924;SDS011;5001;51.674;7.868;2023-11-19T12:03:11;11.40;;;10.90;;
9924;SDS011;5001;51.674;7.868;2023-11-19T12:05:44;10.70;;;10.20;;
9924;SDS011;5001;51.674;7.868;2023-11-19T12:08:14;10.90;;;10.40;;
9924;SDS011;5001;51.674;7.868;2023-11-19T12:10:51;10.40;;;9.90;;
9924;SDS011;5001;51.674;7.868;2023-11-19T12:13:20;10.77;;;10.27;;
9924;SDS011;5001;51.674;7.868;2023-11-19T12:18:27;10.77;;;10.27;;
9924;SDS011;5001;51.674;7.868;2023-11-19T12:20:59;11.00;;;10.50;;
9924;SDS011;5001;51.674;7.868;2023-11-19T12:23:27;10.95;;;10.45;;
9924;SDS011;5001;51.674;7.868;2023-11-19T12:25:57;11.15;;;10.65;;
9924;SDS011;5001;51.674;7.868;2023-11-19T12:28:27;11.77;;;11.18;;
9924;SDS011;5001;51.674;7.868;2023-11-19T12:31:07;11.60;;;11.02;;
9924;SDS011;5001;51.674;7.868;2023-11-19T12:33:36;11.93;;;11.32;;
9924;SDS011;5001;51.674;7.868;2023-11-19T12:36:04;11.70;;;11.10;;
9924;SDS011;5001;51.674;7.868;2023-11-19T12:38:32;12.60;;;12.00;;
9924;SDS011;5001;51.674;7.868;2023-11-19T12:41:09;12.55;;;11.95;;
9924;SDS011;5001;51.674;7.868;2023-11-19T12:43:43;12.63;;;12.02;;
9924;SDS011;5001;51.674;7.868;2023-11-19T12:46:20;12.75;;;12.15;;
9924;SDS011;5001;51.674;7.868;2023-11-19T12:48:48;12.50;;;11.90;;
9924;SDS011;5001;51.674;7.868;2023-11-19T12:51:20;12.70;;;12.10;;
9924;SDS011;5001;51.674;7.868;2023-11-19T12:53:51;12.88;;;12.27;;
9924;SDS011;5001;51.674;7.868;2023-11-19T12:56:35;13.23;;;12.52;;
9924;SDS011;5001;51.674;7.868;2023-11-19T12:59:11;13.15;;;12.45;;
9924;SDS011;5001;51.674;7.868;2023-11-19T13:01:39;12.80;;;12.20;;
9924;SDS011;5001;51.674;7.868;2023-11-19T13:04:19;12.50;;;11.90;;
9924;SDS011;5001;51.674;7.868;2023-11-19T13:06:47;12.65;;;12.05;;
9924;SDS011;5001;51.674;7.868;2023-11-19T13:09:27;13.10;;;12.40;;
9924;SDS011;5001;51.674;7.868;2023-11-19T13:11:55;12.40;;;11.80;;
9924;SDS011;5001;51.674;7.868;2023-11-19T13:14:35;12.85;;;12.25;;
9924;SDS011;5001;51.674;7.868;2023-11-19T13:17:05;12.50;;;11.90;;
9924;SDS011;5001;51.674;7.868;2023-11-19T13:19:32;12.43;;;11.82;;
9924;SDS011;5001;51.674;7.868;2023-11-19T13:21:59;12.30;;;11.70;;
9924;SDS011;5001;51.674;7.868;2023-11-19T13:24:28;12.50;;;11.90;;
9924;SDS011;5001;51.674;7.868;2023-11-19T13:26:56;11.90;;;11.30;;
9924;SDS011;5001;51.674;7.868;2023-11-19T13:29:24;13.80;;;13.10;;
9924;SDS011;5001;51.674;7.868;2023-11-19T13:31:53;12.52;;;11.93;;
9924;SDS011;5001;51.674;7.868;2023-11-19T13:34:20;12.60;;;12.00;;
9924;SDS011;5001;51.674;7.868;2023-11-19T13:36:48;12.73;;;12.13;;
9924;SDS011;5001;51.674;7.868;2023-11-19T13:39:15;12.57;;;11.98;;
9924;SDS011;5001;51.674;7.868;2023-11-19T13:41:49;12.40;;;11.80;;
9924;SDS011;5001;51.674;7.868;2023-11-19T13:44:16;12.15;;;11.55;;
9924;SDS011;5001;51.674;7.868;2023-11-19T13:46:45;11.77;;;11.18;;
9924;SDS011;5001;51.674;7.868;2023-11-19T13:49:13;11.30;;;10.80;;
9924;SDS011;5001;51.674;7.868;2023-11-19T13:51:41;11.20;;;10.70;;
9924;SDS011;5001;51.674;7.868;2023-11-19T13:54:12;11.20;;;10.70;;
9924;SDS011;5001;51.674;7.868;2023-11-19T13:56:40;10.80;;;10.30;;
9924;SDS011;5001;51.674;7.868;2023-11-19T13:59:11;10.88;;;10.38;;
9924;SDS011;5001;51.674;7.868;2023-11-19T14:01:38;11.18;;;10.68;;
9924;SDS011;5001;51.674;7.868;2023-11-19T14:04:05;11.30;;;10.80;;
9924;SDS011;5001;51.674;7.868;2023-11-19T14:06:33;11.38;;;10.88;;
9924;SDS011;5001;51.674;7.868;2023-11-19T14:09:00;11.40;;;10.90;;
9924;SDS011;5001;51.674;7.868;2023-11-19T14:11:27;11.00;;;10.50;;
9924;SDS011;5001;51.674;7.868;2023-11-19T14:13:54;10.90;;;10.40;;
9924;SDS011;5001;51.674;7.868;2023-11-19T14:16:21;10.90;;;10.40;;
9924;SDS011;5001;51.674;7.868;2023-11-19T14:18:51;10.20;;;9.70;;
9924;SDS011;5001;51.674;7.868;2023-11-19T14:21:21;10.93;;;10.43;;
9924;SDS011;5001;51.674;7.868;2023-11-19T14:23:54;10.10;;;9.60;;
9924;SDS011;5001;51.674;7.868;2023-11-19T14:26:22;10.80;;;10.30;;
9924;SDS011;5001;51.674;7.868;2023-11-19T14:28:49;10.53;;;10.03;;
9924;SDS011;5001;51.674;7.868;2023-11-19T14:31:19;10.40;;;9.90;;
9924;SDS011;5001;51.674;7.868;2023-11-19T14:33:47;10.30;;;9.80;;
9924;SDS011;5001;51.674;7.868;2023-11-19T14:36:16;11.30;;;10.80;;
9924;SDS011;5001;51.674;7.868;2023-11-19T14:38:43;9.67;;;9.27;;
9924;SDS011;5001;51.674;7.868;2023-11-19T14:41:10;10.20;;;9.70;;
9924;SDS011;5001;51.674;7.868;2023-11-19T14:43:40;10.20;;;9.70;;
9924;SDS011;5001;51.674;7.868;2023-11-19T14:46:08;9.70;;;9.30;;
9924;SDS011;5001;51.674;7.868;2023-11-19T14:48:36;10.48;;;9.98;;
9924;SDS011;5001;51.674;7.868;2023-11-19T14:51:05;10.40;;;9.90;;
9924;SDS011;5001;51.674;7.868;2023-11-19T14:53:33;10.20;;;9.70;;
9924;SDS011;5001;51.674;7.868;2023-11-19T14:56:01;10.07;;;9.57;;
9924;SDS011;5001;51.674;7.868;2023-11-19T14:58:29;10.02;;;9.52;;
9924;SDS011;5001;51.674;7.868;2023-11-19T15:00:56;10.30;;;9.80;;
9924;SDS011;5001;51.674;7.868;2023-11-19T15:03:24;10.10;;;9.60;;
9924;SDS011;5001;51.674;7.868;2023-11-19T15:05:52;9.83;;;9.37;;
9924;SDS011;5001;51.674;7.868;2023-11-19T15:08:22;9.70;;;9.30;;
9924;SDS011;5001;51.674;7.868;2023-11-19T15:10:51;9.87;;;9.40;;
9924;SDS011;5001;51.674;7.868;2023-11-19T15:13:21;9.73;;;9.33;;
9924;SDS011;5001;51.674;7.868;2023-11-19T15:15:48;9.60;;;9.20;;
9924;SDS011;5001;51.674;7.868;2023-11-19T15:18:18;9.00;;;8.60;;
9924;SDS011;5001;51.674;7.868;2023-11-19T15:20:46;8.90;;;8.50;;
9924;SDS011;5001;51.674;7.868;2023-11-19T15:23:14;9.00;;;8.60;;
9924;SDS011;5001;51.674;7.868;2023-11-19T15:25:43;9.00;;;8.60;;
9924;SDS011;5001;51.674;7.868;2023-11-19T15:28:11;9.10;;;8.70;;
9924;SDS011;5001;51.674;7.868;2023-11-19T15:30:39;8.90;;;8.50;;
9924;SDS011;5001;51.674;7.868;2023-11-19T15:33:06;8.90;;;8.50;;
9924;SDS011;5001;51.674;7.868;2023-11-19T15:35:35;8.80;;;8.40;;
9924;SDS011;5001;51.674;7.868;2023-11-19T15:38:03;8.97;;;8.57;;